Weather at Ceres Airport

Public forecast

Using degrees Celsius for public forecast. Weather courtesy of forecast.io.

Closest aviation weather report (METAR) to Ceres Airport

Closest report is Avalon Airport, 11.9 nm (22.1 km) ENE.

2024/06/16 21:30 (retrieved 15 minutes ago)

YMAV 162130Z AUTO 30006KT 9999 // BKN043 05/04 Q1022 RF000/0000

Closest aviation forecast (TAF) to Ceres Airport

Closest forecast is Avalon Airport, 11.9 nm (22.1 km) ENE.

2024/06/16 18:36 (retrieved 3 hours ago)

TAF TAF YMAV 161712Z 1618/1718 22008KT 9999 -SHRA BKN025 FM170300 19006KT 9999 NSW BKN030 FM171200 25005KT 9999 BKN035